Time;durP1;ratioP1;P1;durP2;ratioP2;P2;SDS_P1;SDS_P2;PMS_P1;PMS_P2;Temp;Humidity;BMP_temperature;BMP_pressure;BME280_temperature;BME280_humidity;BME280_pressure;Samples;Min_cycle;Max_cycle;Signal;HPM_P1;HPM_P2
2024/02/09 00:00:12;;;;;;;5.45;2.20;;;11.20;99.90;;;;;;4972078;28;20165;-68
2024/02/09 00:02:41;;;;;;;19.00;2.72;;;11.20;99.90;;;;;;4973224;28;20040;-68
2024/02/09 00:05:09;;;;;;;16.95;2.22;;;11.30;99.90;;;;;;4974531;28;20038;-68
2024/02/09 00:07:35;;;;;;;17.15;2.75;;;11.30;99.90;;;;;;4975477;28;20491;-68
2024/02/09 00:10:01;;;;;;;12.43;2.20;;;11.30;99.90;;;;;;4958544;28;20034;-68
2024/02/09 00:12:27;;;;;;;12.05;2.85;;;11.30;99.90;;;;;;4973931;28;20545;-68
2024/02/09 00:14:53;;;;;;;12.63;1.90;;;11.40;99.90;;;;;;4957935;28;20035;-68
2024/02/09 00:17:19;;;;;;;11.57;2.92;;;11.40;99.90;;;;;;4989921;28;20383;-68
2024/02/09 00:19:46;;;;;;;18.20;2.72;;;11.40;99.90;;;;;;4974881;28;20077;-68
2024/02/09 00:22:12;;;;;;;5.40;2.53;;;11.50;99.90;;;;;;4974273;28;20026;-68
2024/02/09 00:24:42;;;;;;;14.60;3.67;;;11.50;99.90;;;;;;4973871;28;20069;-69
2024/02/09 00:27:11;;;;;;;15.80;2.83;;;11.50;99.90;;;;;;4972034;28;20027;-68
2024/02/09 00:29:37;;;;;;;8.15;3.95;;;11.50;99.90;;;;;;4974532;28;20029;-69
2024/02/09 00:32:07;;;;;;;7.15;2.90;;;11.50;99.90;;;;;;4975485;28;20043;-67
2024/02/09 00:34:34;;;;;;;16.58;2.17;;;11.60;99.90;;;;;;4975269;28;20053;-67
2024/02/09 00:37:04;;;;;;;18.73;3.15;;;11.60;99.90;;;;;;4973525;28;20033;-69
2024/02/09 00:39:33;;;;;;;8.50;2.38;;;11.70;99.90;;;;;;4963034;28;20027;-68
2024/02/09 00:42:01;;;;;;;3.55;1.55;;;11.70;99.90;;;;;;4973538;28;20681;-68
2024/02/09 00:44:27;;;;;;;12.23;3.00;;;11.70;99.90;;;;;;4973736;28;20026;-68
2024/02/09 00:46:52;;;;;;;5.03;2.00;;;11.70;99.90;;;;;;4957459;28;20811;-68
2024/02/09 00:49:18;;;;;;;14.43;2.40;;;11.70;99.90;;;;;;4974202;28;20026;-68
2024/02/09 00:51:45;;;;;;;7.43;3.08;;;11.70;99.90;;;;;;4987763;28;20030;-68
2024/02/09 00:54:14;;;;;;;12.23;1.70;;;11.70;99.90;;;;;;4974334;28;20117;-68
2024/02/09 00:56:43;;;;;;;14.85;2.10;;;11.70;99.90;;;;;;4978032;28;20030;-68
2024/02/09 00:59:09;;;;;;;2.63;1.75;;;11.70;99.90;;;;;;4974824;28;20026;-68
2024/02/09 01:01:37;;;;;;;3.65;0.52;;;11.60;99.90;;;;;;4971025;28;20038;-68
2024/02/09 01:04:06;;;;;;;6.78;1.48;;;11.60;99.90;;;;;;4973504;28;20035;-68
2024/02/09 01:06:34;;;;;;;7.82;1.73;;;11.50;99.90;;;;;;4974010;28;20101;-68
2024/02/09 01:09:00;;;;;;;3.55;1.40;;;11.40;99.90;;;;;;4956797;28;20039;-68
2024/02/09 01:11:27;;;;;;;1.52;0.85;;;11.40;99.90;;;;;;4958006;28;20027;-68
2024/02/09 02:44:46;;;;;;;6.97;2.60;;;10.00;99.90;;;;;;4972786;28;20041;-68
2024/02/09 02:47:13;;;;;;;9.45;2.33;;;10.00;99.90;;;;;;4969335;28;20133;-68
2024/02/09 03:06:05;;;;;;;1.95;1.25;;;9.90;99.90;;;;;;4975521;28;20543;-68
2024/02/09 03:08:31;;;;;;;1.63;0.93;;;9.90;99.90;;;;;;4976999;28;20029;-69
2024/02/09 03:10:57;;;;;;;3.95;1.92;;;9.90;99.90;;;;;;4970164;28;20122;-69
2024/02/09 03:13:23;;;;;;;2.50;1.08;;;9.90;99.90;;;;;;4972117;28;20026;-69
2024/02/09 03:15:48;;;;;;;8.57;1.85;;;9.90;99.90;;;;;;4970973;28;20065;-68
2024/02/09 03:18:17;;;;;;;6.55;3.38;;;9.90;99.90;;;;;;4970955;28;20066;-68
2024/02/09 03:20:44;;;;;;;3.97;1.35;;;9.90;99.90;;;;;;4965403;28;20058;-68
2024/02/09 03:23:09;;;;;;;2.92;1.27;;;9.90;99.90;;;;;;4986669;28;20097;-68
2024/02/09 03:25:35;;;;;;;4.63;2.05;;;9.80;99.90;;;;;;4986404;28;20165;-68
2024/02/09 03:28:01;;;;;;;5.10;1.50;;;9.80;99.90;;;;;;4954408;28;20461;-68
2024/02/09 03:30:27;;;;;;;3.85;1.35;;;9.80;99.90;;;;;;4987334;28;20106;-68
2024/02/09 03:32:53;;;;;;;3.60;1.38;;;9.80;99.90;;;;;;4986641;28;20023;-68
2024/02/09 03:35:19;;;;;;;10.30;2.65;;;9.80;99.90;;;;;;4971205;28;20073;-68
2024/02/09 03:37:45;;;;;;;6.88;1.08;;;9.90;99.90;;;;;;4967251;28;20035;-67
2024/02/09 03:40:12;;;;;;;2.70;1.95;;;9.90;99.90;;;;;;4971395;28;20031;-68
2024/02/09 03:42:38;;;;;;;12.73;1.38;;;9.90;99.90;;;;;;4970870;28;20055;-67
2024/02/09 03:45:06;;;;;;;8.23;1.25;;;9.90;99.90;;;;;;4971695;28;20069;-67
2024/02/09 03:47:35;;;;;;;2.55;1.60;;;9.90;99.90;;;;;;4970602;28;20526;-67
2024/02/09 03:50:04;;;;;;;0.52;0.40;;;9.90;99.90;;;;;;4970239;28;20101;-67
2024/02/09 03:52:29;;;;;;;2.72;1.88;;;9.90;99.90;;;;;;4986618;28;20400;-68
2024/02/09 03:54:56;;;;;;;5.43;1.50;;;9.90;99.90;;;;;;4970606;28;20031;-68
2024/02/09 03:57:27;;;;;;;5.93;2.10;;;9.90;99.90;;;;;;4970770;28;20030;-68
2024/02/09 03:59:53;;;;;;;;;;;9.90;99.90;;;;;;4955189;28;20138;-68
2024/02/09 04:02:21;;;;;;;6.93;2.28;;;9.90;99.90;;;;;;4970650;28;19950;-67
2024/02/09 04:04:47;;;;;;;2.50;1.10;;;10.00;99.90;;;;;;4971640;28;20451;-67
2024/02/09 04:07:15;;;;;;;1.58;1.08;;;10.00;99.90;;;;;;4977020;28;20494;-68
2024/02/09 04:09:42;;;;;;;6.13;1.48;;;10.00;99.90;;;;;;4970701;28;20128;-67
2024/02/09 04:12:10;;;;;;;7.75;2.05;;;10.00;99.90;;;;;;4969403;28;20085;-68
2024/02/09 04:14:36;;;;;;;2.03;0.98;;;10.00;99.90;;;;;;4971442;28;20026;-68
2024/02/09 04:17:06;;;;;;;2.38;1.13;;;10.00;99.90;;;;;;4971097;28;20046;-69
2024/02/09 04:19:34;;;;;;;3.78;2.85;;;10.00;99.90;;;;;;4971900;28;20035;-68
2024/02/09 04:22:00;;;;;;;2.90;1.70;;;10.00;99.90;;;;;;4970755;28;20418;-68
2024/02/09 04:24:27;;;;;;;3.75;1.60;;;10.00;99.90;;;;;;4969415;28;20030;-68
2024/02/09 04:26:54;;;;;;;1.73;1.27;;;10.00;99.90;;;;;;4969195;28;20439;-68
2024/02/09 04:29:23;;;;;;;2.05;1.00;;;10.00;99.90;;;;;;4970167;28;20058;-68
2024/02/09 04:31:52;;;;;;;3.40;1.17;;;10.00;99.90;;;;;;4970353;28;20031;-69
2024/02/09 04:34:18;;;;;;;2.50;1.30;;;10.00;99.90;;;;;;4969604;28;20065;-69
2024/02/09 04:36:47;;;;;;;3.95;1.27;;;10.00;99.90;;;;;;4971775;28;20131;-69
2024/02/09 04:39:14;;;;;;;9.80;1.73;;;10.00;99.90;;;;;;4970701;28;20031;-68
2024/02/09 04:41:46;;;;;;;8.65;2.50;;;10.00;99.90;;;;;;4970430;28;20023;-69
2024/02/09 04:44:12;;;;;;;5.55;1.23;;;10.00;99.90;;;;;;4962140;28;20062;-69
2024/02/09 04:46:42;;;;;;;3.30;1.13;;;10.00;99.90;;;;;;4970639;28;20030;-69
2024/02/09 04:49:11;;;;;;;1.10;0.98;;;10.00;99.90;;;;;;4964454;28;20027;-69
2024/02/09 04:51:41;;;;;;;4.95;1.80;;;10.00;99.90;;;;;;4974062;28;20062;-69
2024/02/09 04:54:08;;;;;;;3.55;1.25;;;9.90;99.90;;;;;;4981435;28;20050;-69
2024/02/09 04:56:34;;;;;;;2.28;1.02;;;9.90;99.90;;;;;;4974362;28;20031;-69
2024/02/09 04:59:04;;;;;;;3.63;1.20;;;9.90;99.90;;;;;;4970538;28;20517;-69
2024/02/09 05:01:32;;;;;;;5.22;1.75;;;9.90;99.90;;;;;;4976502;28;20724;-69
2024/02/09 05:03:59;;;;;;;9.70;3.15;;;9.90;99.90;;;;;;4972518;28;20038;-69
2024/02/09 05:06:26;;;;;;;2.20;1.38;;;9.90;99.90;;;;;;4974157;28;20031;-68
2024/02/09 05:08:53;;;;;;;3.30;1.77;;;9.90;99.90;;;;;;4972733;28;20022;-68
2024/02/09 05:11:23;;;;;;;2.35;1.63;;;9.90;99.90;;;;;;4973180;28;20122;-67
2024/02/09 05:13:49;;;;;;;6.35;2.22;;;9.90;99.90;;;;;;4972252;28;20046;-68
2024/02/09 05:16:18;;;;;;;11.23;2.92;;;9.90;99.90;;;;;;4973588;28;20041;-69
2024/02/09 05:18:44;;;;;;;4.10;1.45;;;9.90;99.90;;;;;;4950937;28;20352;-68
2024/02/09 05:21:11;;;;;;;4.97;2.38;;;9.90;99.90;;;;;;4990188;28;20784;-68
2024/02/09 05:23:38;;;;;;;4.00;1.02;;;9.90;99.90;;;;;;4973635;28;20406;-68
2024/02/09 05:26:07;;;;;;;3.15;1.52;;;9.90;99.90;;;;;;4952791;28;20495;-68
2024/02/09 05:28:38;;;;;;;4.28;1.77;;;9.90;99.90;;;;;;4952184;28;20122;-68
2024/02/09 05:31:17;;;;;;;7.03;2.28;;;9.90;99.90;;;;;;4952932;28;20047;-69
2024/02/09 05:33:44;;;;;;;6.95;2.65;;;9.80;99.90;;;;;;4937206;28;20035;-69
2024/02/09 05:36:25;;;;;;;3.25;1.48;;;9.90;99.90;;;;;;4936930;29;20052;-68
2024/02/09 05:38:57;;;;;;;6.20;1.70;;;9.90;99.90;;;;;;4951903;28;20035;-69
2024/02/09 05:41:23;;;;;;;9.07;2.92;;;9.80;99.90;;;;;;4952607;28;20377;-68
2024/02/09 05:43:56;;;;;;;6.22;2.97;;;9.90;99.90;;;;;;4943433;29;20047;-68
2024/02/09 05:46:25;;;;;;;5.97;2.28;;;9.90;99.90;;;;;;4953009;28;20093;-69
2024/02/09 05:48:52;;;;;;;2.00;1.30;;;9.90;99.90;;;;;;4936522;28;20094;-68
2024/02/09 05:51:21;;;;;;;7.47;3.55;;;9.90;99.90;;;;;;4952021;28;20046;-68
2024/02/09 05:53:47;;;;;;;8.77;2.92;;;9.90;99.90;;;;;;4951203;28;20464;-68
2024/02/09 05:56:34;;;;;;;4.20;1.63;;;9.90;99.90;;;;;;4924420;28;20569;-69
2024/02/09 05:59:04;;;;;;;14.68;2.38;;;9.90;99.90;;;;;;4973684;28;20042;-69
2024/02/09 06:01:31;;;;;;;6.57;2.28;;;9.90;99.90;;;;;;4970477;28;20069;-68
2024/02/09 06:03:57;;;;;;;15.13;1.45;;;9.90;99.90;;;;;;4965383;28;20097;-68
2024/02/09 06:06:23;;;;;;;8.07;2.65;;;9.90;99.90;;;;;;4973214;28;20031;-68
2024/02/09 06:08:49;;;;;;;10.60;2.17;;;9.90;99.90;;;;;;4972597;28;20027;-68
2024/02/09 06:11:16;;;;;;;5.25;2.70;;;9.90;99.90;;;;;;4972199;28;20034;-68
2024/02/09 06:13:44;;;;;;;3.45;2.25;;;9.90;99.90;;;;;;4972210;28;20022;-68
2024/02/09 06:16:14;;;;;;;6.28;2.40;;;9.90;99.90;;;;;;4972073;28;20033;-68
2024/02/09 06:18:42;;;;;;;6.40;2.35;;;9.90;99.90;;;;;;4989162;28;20286;-69
2024/02/09 06:21:09;;;;;;;6.70;1.98;;;10.00;99.90;;;;;;4964058;28;20483;-68
2024/02/09 06:23:38;;;;;;;14.70;2.72;;;10.00;99.90;;;;;;4987630;28;20034;-68
2024/02/09 06:26:04;;;;;;;7.30;2.35;;;10.00;99.90;;;;;;4970864;28;20558;-69
2024/02/09 06:28:30;;;;;;;2.65;1.15;;;10.00;99.90;;;;;;4972999;28;20054;-69
2024/02/09 06:30:55;;;;;;;6.63;2.35;;;10.00;99.90;;;;;;4972274;28;20046;-69
2024/02/09 06:33:21;;;;;;;4.43;2.00;;;10.00;99.90;;;;;;4971710;28;20372;-69
2024/02/09 06:35:50;;;;;;;9.77;2.53;;;10.00;99.90;;;;;;4964486;28;20039;-69
2024/02/09 06:38:18;;;;;;;4.65;2.15;;;10.00;99.90;;;;;;4971543;28;20455;-69
2024/02/09 06:40:45;;;;;;;3.90;2.25;;;10.10;99.90;;;;;;4956753;28;20042;-69
2024/02/09 06:43:11;;;;;;;2.72;1.50;;;10.10;99.90;;;;;;4968407;28;20038;-70
2024/02/09 06:45:37;;;;;;;5.05;2.13;;;10.10;99.90;;;;;;4973800;28;20514;-70
2024/02/09 06:48:05;;;;;;;8.18;2.45;;;10.10;99.90;;;;;;4970127;28;20034;-70
2024/02/09 06:50:35;;;;;;;3.58;1.80;;;10.10;99.90;;;;;;4974156;28;20463;-69
2024/02/09 06:53:05;;;;;;;3.42;2.30;;;10.10;99.90;;;;;;4971862;28;20039;-69
2024/02/09 06:55:36;;;;;;;15.35;3.17;;;10.10;99.90;;;;;;4972002;28;20061;-69
2024/02/09 06:58:05;;;;;;;4.55;1.80;;;10.10;99.90;;;;;;4973743;28;20487;-69
2024/02/09 07:00:35;;;;;;;6.20;2.70;;;10.10;99.90;;;;;;4967685;28;20051;-69
2024/02/09 07:03:03;;;;;;;7.40;2.67;;;10.10;99.90;;;;;;4974417;28;20043;-69
2024/02/09 07:05:29;;;;;;;6.57;2.67;;;10.10;99.90;;;;;;4972056;28;20026;-69
2024/02/09 07:07:55;;;;;;;3.20;1.80;;;10.10;99.90;;;;;;4973214;28;20077;-69
2024/02/09 07:10:24;;;;;;;6.47;2.17;;;10.00;99.90;;;;;;4969959;28;20074;-69
2024/02/09 07:12:53;;;;;;;4.47;2.00;;;10.10;99.90;;;;;;4971348;28;20031;-69
2024/02/09 07:15:19;;;;;;;4.38;2.13;;;10.10;99.90;;;;;;4960969;28;20027;-68
2024/02/09 07:17:45;;;;;;;9.13;1.60;;;10.10;99.90;;;;;;4966900;28;20023;-70
2024/02/09 07:20:12;;;;;;;9.05;1.85;;;10.10;99.90;;;;;;4972210;28;20047;-69
2024/02/09 07:22:38;;;;;;;8.32;2.33;;;10.10;99.90;;;;;;4971349;28;20030;-68
2024/02/09 07:25:05;;;;;;;2.60;1.52;;;10.10;99.90;;;;;;4971807;28;20031;-68
2024/02/09 07:27:30;;;;;;;5.38;1.52;;;10.10;99.90;;;;;;4973179;28;20034;-70
2024/02/09 07:29:56;;;;;;;11.88;2.72;;;10.10;99.90;;;;;;4969153;28;20034;-69
2024/02/09 07:32:23;;;;;;;4.47;2.47;;;10.10;99.90;;;;;;4985765;28;20023;-68
2024/02/09 07:34:49;;;;;;;5.75;3.28;;;10.20;99.90;;;;;;4971798;28;20454;-68
2024/02/09 07:37:15;;;;;;;2.28;1.00;;;10.20;99.90;;;;;;4973572;28;20027;-69
2024/02/09 07:39:42;;;;;;;2.78;1.48;;;10.20;99.90;;;;;;4973842;28;20037;-69
2024/02/09 07:42:09;;;;;;;3.03;2.45;;;10.20;99.90;;;;;;4971935;28;20066;-69
2024/02/09 07:44:36;;;;;;;6.70;2.17;;;10.20;99.90;;;;;;4975456;28;20365;-69
2024/02/09 07:47:06;;;;;;;16.85;3.25;;;10.20;99.90;;;;;;4971590;28;20118;-69
2024/02/09 07:49:33;;;;;;;2.42;1.48;;;10.30;99.90;;;;;;4971556;28;20039;-69
2024/02/09 07:52:00;;;;;;;6.90;2.70;;;10.20;99.90;;;;;;4969967;28;20031;-69
2024/02/09 07:54:26;;;;;;;8.10;3.45;;;10.30;99.90;;;;;;4970861;28;20033;-69
2024/02/09 07:56:53;;;;;;;3.95;1.73;;;10.30;99.90;;;;;;4986172;28;20487;-70
2024/02/09 07:59:20;;;;;;;5.82;2.25;;;10.30;99.90;;;;;;4977781;28;20085;-69
2024/02/09 08:01:47;;;;;;;4.47;1.67;;;10.40;99.90;;;;;;4970382;28;20026;-70
2024/02/09 08:04:13;;;;;;;8.23;1.42;;;10.30;99.90;;;;;;4969661;28;20397;-69
2024/02/09 08:06:39;;;;;;;6.78;2.17;;;10.40;99.90;;;;;;4982615;28;20050;-69
2024/02/09 08:09:05;;;;;;;3.30;1.50;;;10.40;99.90;;;;;;4968884;28;20723;-69
2024/02/09 08:11:31;;;;;;;4.55;2.35;;;10.40;99.90;;;;;;4986921;28;20044;-68
2024/02/09 08:14:00;;;;;;;7.05;1.95;;;10.40;99.90;;;;;;4985191;28;20530;-68
2024/02/09 08:16:26;;;;;;;3.50;2.42;;;10.50;99.90;;;;;;4972626;28;20110;-68
2024/02/09 08:18:53;;;;;;;7.50;3.05;;;10.50;99.90;;;;;;4970330;28;20460;-67
2024/02/09 08:21:20;;;;;;;2.88;1.95;;;10.50;99.90;;;;;;4986781;28;20512;-68
2024/02/09 08:23:46;;;;;;;6.53;2.13;;;10.60;99.90;;;;;;4956114;28;20070;-69
2024/02/09 08:26:11;;;;;;;5.00;1.40;;;10.60;99.90;;;;;;4975266;28;20070;-67
2024/02/09 08:28:43;;;;;;;4.75;1.90;;;10.60;99.90;;;;;;4975179;28;20030;-71
2024/02/09 08:31:16;;;;;;;5.70;2.28;;;10.60;99.90;;;;;;4968562;28;20471;-73
2024/02/09 08:33:44;;;;;;;5.60;2.88;;;10.60;99.90;;;;;;4972688;28;20069;-70
2024/02/09 08:36:17;;;;;;;6.38;2.13;;;10.60;99.90;;;;;;4990857;28;20046;-72
2024/02/09 08:38:44;;;;;;;6.18;3.15;;;10.60;99.90;;;;;;4974285;28;20030;-68
2024/02/09 08:41:10;;;;;;;6.60;3.15;;;10.70;99.90;;;;;;4974563;28;20051;-70
2024/02/09 08:43:36;;;;;;;11.38;2.30;;;10.70;99.90;;;;;;4989075;28;20049;-68
2024/02/09 08:46:02;;;;;;;14.00;2.05;;;10.80;99.90;;;;;;4974439;28;20113;-68
2024/02/09 08:48:28;;;;;;;10.30;2.38;;;10.80;99.90;;;;;;4974910;28;20034;-68
2024/02/09 08:50:55;;;;;;;10.90;3.25;;;10.80;99.90;;;;;;4974052;28;20537;-68
2024/02/09 08:53:21;;;;;;;1.95;1.60;;;10.80;99.90;;;;;;4972978;28;20042;-69
2024/02/09 08:55:46;;;;;;;5.72;2.85;;;10.80;99.90;;;;;;4974154;28;20027;-68
2024/02/09 08:58:12;;;;;;;3.78;2.00;;;10.90;99.90;;;;;;4974263;28;20023;-68
2024/02/09 09:00:38;;;;;;;6.03;1.65;;;10.90;99.90;;;;;;4977499;28;20031;-67
2024/02/09 09:03:04;;;;;;;6.65;1.88;;;10.90;99.90;;;;;;4973776;28;20035;-67
2024/02/09 09:05:29;;;;;;;9.82;3.05;;;10.90;99.90;;;;;;4968820;28;20353;-69
2024/02/09 09:07:55;;;;;;;15.77;2.63;;;11.00;99.90;;;;;;4975750;28;20101;-68
2024/02/09 09:10:21;;;;;;;9.57;2.80;;;11.00;99.90;;;;;;4970429;28;20045;-68
2024/02/09 09:12:46;;;;;;;15.23;1.98;;;11.00;99.90;;;;;;4989445;28;20416;-67
2024/02/09 09:15:13;;;;;;;5.88;1.58;;;11.00;99.90;;;;;;4974737;28;20514;-67
2024/02/09 09:17:40;;;;;;;4.25;2.30;;;11.10;99.90;;;;;;4973245;28;20019;-67
2024/02/09 09:20:10;;;;;;;4.40;1.20;;;11.10;99.90;;;;;;4974690;28;20093;-67
2024/02/09 09:22:39;;;;;;;5.68;2.65;;;11.20;99.90;;;;;;4972594;28;20118;-67
2024/02/09 09:25:07;;;;;;;3.13;1.52;;;11.20;99.90;;;;;;4972733;28;20034;-72
2024/02/09 09:27:34;;;;;;;7.60;2.15;;;11.30;99.90;;;;;;4974170;28;20022;-69
2024/02/09 09:30:01;;;;;;;5.03;1.98;;;11.30;99.90;;;;;;4973431;28;20031;-67
2024/02/09 09:32:27;;;;;;;8.52;2.13;;;11.40;99.90;;;;;;4975299;28;20022;-69
2024/02/09 09:34:53;;;;;;;7.45;2.35;;;11.40;99.90;;;;;;4972591;28;20502;-69
2024/02/09 09:37:18;;;;;;;5.57;2.22;;;11.50;99.90;;;;;;4973747;28;20494;-69
2024/02/09 09:39:44;;;;;;;8.80;1.95;;;11.50;99.90;;;;;;4974298;28;20035;-69
2024/02/09 09:42:10;;;;;;;4.57;1.73;;;11.60;99.90;;;;;;4974876;28;20031;-69
2024/02/09 09:44:36;;;;;;;7.43;2.53;;;11.70;99.90;;;;;;4973534;28;20039;-69
2024/02/09 09:47:02;;;;;;;7.78;1.65;;;11.80;99.90;;;;;;4974736;28;20337;-70
2024/02/09 09:49:30;;;;;;;5.15;1.50;;;11.80;99.90;;;;;;4973776;28;20432;-69
2024/02/09 09:52:00;;;;;;;5.28;1.95;;;11.90;99.90;;;;;;4972971;28;20119;-69
2024/02/09 09:54:30;;;;;;;5.05;1.20;;;12.00;99.90;;;;;;4972068;28;20042;-69
2024/02/09 09:56:59;;;;;;;2.53;1.02;;;12.10;99.90;;;;;;4973224;28;20038;-69
2024/02/09 09:59:25;;;;;;;8.77;1.83;;;12.20;99.90;;;;;;4988465;28;20364;-66
2024/02/09 10:01:52;;;;;;;5.90;1.38;;;12.20;99.90;;;;;;4972865;28;20038;-66
2024/02/09 10:04:18;;;;;;;8.40;1.65;;;12.30;99.90;;;;;;4973292;28;20030;-67
2024/02/09 10:06:45;;;;;;;1.83;1.00;;;12.30;99.90;;;;;;4956839;28;20027;-70
2024/02/09 10:09:12;;;;;;;2.60;1.40;;;12.20;99.90;;;;;;4972060;28;20067;-67
2024/02/09 10:11:40;;;;;;;4.00;1.58;;;12.20;99.90;;;;;;4964582;28;20030;-67
2024/02/09 10:14:16;;;;;;;8.23;1.58;;;12.20;99.90;;;;;;4969461;28;20027;-66
2024/02/09 10:16:44;;;;;;;9.38;2.20;;;12.20;99.90;;;;;;4962973;28;20035;-66
2024/02/09 10:19:13;;;;;;;11.75;2.17;;;12.30;99.90;;;;;;4973070;28;20106;-70
2024/02/09 10:21:39;;;;;;;10.10;1.30;;;12.30;99.90;;;;;;4962153;28;20054;-67
2024/02/09 10:24:06;;;;;;;3.42;1.30;;;12.40;99.90;;;;;;4968810;28;20101;-66
2024/02/09 10:26:33;;;;;;;5.07;1.40;;;12.50;99.90;;;;;;4970798;28;20518;-67
2024/02/09 10:28:59;;;;;;;5.93;1.30;;;12.60;99.90;;;;;;4969685;28;20042;-66
2024/02/09 10:31:28;;;;;;;3.35;1.40;;;12.70;99.90;;;;;;4970507;28;20022;-67
2024/02/09 10:33:56;;;;;;;2.33;1.20;;;12.90;99.90;;;;;;4967933;28;20028;-67
2024/02/09 10:36:27;;;;;;;8.77;1.35;;;13.50;99.90;;;;;;4985015;28;20023;-67
2024/02/09 10:38:55;;;;;;;;;;;13.90;99.90;;;;;;4972991;28;20709;-66
2024/02/09 10:41:29;;;;;;;1.83;0.80;;;13.80;99.90;;;;;;4962496;28;20433;-66
2024/02/09 10:43:58;;;;;;;2.40;0.88;;;13.70;99.90;;;;;;4971808;28;20073;-67
2024/02/09 10:46:27;;;;;;;6.82;1.67;;;13.80;99.90;;;;;;4971305;28;20034;-66
2024/02/09 10:48:59;;;;;;;3.67;1.33;;;13.70;99.90;;;;;;4973154;28;20035;-67
2024/02/09 10:51:35;;;;;;;2.25;1.17;;;13.50;99.90;;;;;;4972577;28;20035;-67
2024/02/09 10:54:30;;;;;;;8.65;0.98;;;13.50;99.90;;;;;;4971630;28;20088;-66
2024/02/09 10:56:57;;;;;;;2.85;1.33;;;13.70;99.90;;;;;;4971216;28;20125;-66
2024/02/09 10:59:23;;;;;;;2.63;1.23;;;13.70;99.90;;;;;;4970801;28;20022;-66
2024/02/09 11:01:50;;;;;;;6.20;0.82;;;13.50;99.90;;;;;;4971617;28;20043;-68
2024/02/09 11:04:16;;;;;;;5.53;1.00;;;13.40;99.90;;;;;;4970277;28;20774;-66
2024/02/09 11:06:42;;;;;;;1.75;1.02;;;13.40;99.90;;;;;;4974344;28;20039;-66
2024/02/09 11:09:10;;;;;;;3.17;1.23;;;13.50;99.90;;;;;;4969886;28;20058;-65
2024/02/09 11:11:39;;;;;;;5.78;1.98;;;13.50;99.90;;;;;;4971724;28;20079;-66
2024/02/09 11:14:08;;;;;;;2.33;1.08;;;13.50;99.90;;;;;;4971459;28;20392;-66
2024/02/09 11:16:46;;;;;;;5.68;1.67;;;13.50;99.90;;;;;;4972704;28;20096;-66
2024/02/09 11:19:15;;;;;;;5.78;1.52;;;13.50;99.90;;;;;;4965996;28;20026;-67
2024/02/09 11:21:57;;;;;;;2.67;0.98;;;13.50;99.90;;;;;;4971567;28;20030;-67
2024/02/09 11:24:28;;;;;;;7.90;1.30;;;13.50;99.90;;;;;;4970705;28;20034;-67
2024/02/09 11:26:55;;;;;;;3.10;1.13;;;13.50;99.90;;;;;;4972828;28;20078;-67
2024/02/09 11:29:22;;;;;;;6.85;1.42;;;13.40;99.90;;;;;;4970829;28;20386;-65
2024/02/09 11:31:57;;;;;;;1.85;0.93;;;13.50;99.90;;;;;;4972475;28;20030;-66
2024/02/09 11:34:25;;;;;;;3.17;1.00;;;13.50;99.90;;;;;;4970112;28;20032;-66
2024/02/09 11:36:52;;;;;;;3.45;0.88;;;13.60;99.90;;;;;;4972728;28;20133;-66
2024/02/09 11:39:22;;;;;;;5.93;1.13;;;13.60;99.90;;;;;;4969886;28;20070;-66
2024/02/09 11:41:51;;;;;;;5.50;1.10;;;13.70;99.90;;;;;;4971138;28;20046;-66
2024/02/09 11:44:23;;;;;;;2.58;1.20;;;13.70;99.90;;;;;;4969849;28;20038;-67
2024/02/09 11:46:53;;;;;;;4.03;1.98;;;13.80;99.90;;;;;;4986963;28;20117;-66
2024/02/09 11:49:23;;;;;;;1.17;0.75;;;13.80;99.90;;;;;;4970064;28;20065;-66
2024/02/09 11:51:50;;;;;;;8.60;0.90;;;13.80;99.90;;;;;;4971113;28;20058;-66
2024/02/09 11:54:16;;;;;;;3.90;1.40;;;13.80;99.90;;;;;;4969663;28;20023;-66
2024/02/09 11:56:45;;;;;;;8.93;2.30;;;13.90;99.90;;;;;;4971117;28;20044;-66
2024/02/09 11:59:12;;;;;;;4.13;1.80;;;14.00;99.90;;;;;;4969627;28;20034;-66
2024/02/09 12:01:42;;;;;;;7.85;1.38;;;14.10;99.90;;;;;;4972003;28;20027;-66
2024/02/09 12:04:09;;;;;;;4.10;1.85;;;14.20;99.90;;;;;;4969369;28;20103;-66
2024/02/09 12:06:36;;;;;;;6.93;1.25;;;14.20;99.90;;;;;;4971058;28;20027;-66
2024/02/09 12:09:03;;;;;;;7.75;1.55;;;14.10;99.90;;;;;;4971456;28;20038;-66
2024/02/09 12:11:30;;;;;;;7.45;1.30;;;14.20;99.90;;;;;;4972095;28;20034;-66
2024/02/09 12:13:56;;;;;;;6.45;1.42;;;14.10;99.90;;;;;;4968417;28;20042;-65
2024/02/09 12:16:21;;;;;;;9.63;2.20;;;14.00;99.90;;;;;;4971038;28;20023;-66
2024/02/09 12:18:55;;;;;;;3.47;1.63;;;14.00;99.90;;;;;;4971324;28;20479;-69
2024/02/09 12:21:21;;;;;;;5.88;2.25;;;14.00;99.90;;;;;;4970724;28;20042;-69
2024/02/09 12:23:49;;;;;;;3.00;1.23;;;14.00;99.90;;;;;;4969309;28;20031;-69
2024/02/09 12:26:15;;;;;;;3.30;1.27;;;14.00;99.90;;;;;;4978163;28;20046;-69
2024/02/09 12:28:41;;;;;;;7.95;1.83;;;14.00;99.90;;;;;;4971243;28;20400;-72
2024/02/09 12:31:12;;;;;;;2.08;1.13;;;14.10;99.90;;;;;;4970638;28;20032;-69
2024/02/09 12:33:45;;;;;;;;;;;14.20;99.90;;;;;;4969861;28;20030;-69
2024/02/09 12:36:14;;;;;;;3.67;1.00;;;14.40;99.90;;;;;;4971130;28;19969;-69
2024/02/09 12:38:41;;;;;;;9.82;1.98;;;14.60;99.90;;;;;;4969439;28;20039;-68
2024/02/09 12:41:11;;;;;;;10.07;1.60;;;14.90;99.90;;;;;;4970978;28;20387;-70
2024/02/09 12:43:37;;;;;;;8.00;1.35;;;14.90;99.90;;;;;;4969516;28;20058;-69
2024/02/09 12:46:06;;;;;;;7.07;1.50;;;15.10;99.90;;;;;;4972147;28;20113;-69
2024/02/09 12:48:36;;;;;;;4.55;1.60;;;14.70;99.90;;;;;;4983267;28;20106;-69
2024/02/09 12:51:05;;;;;;;2.05;0.75;;;14.80;99.90;;;;;;4970603;28;20031;-68
2024/02/09 12:53:33;;;;;;;2.85;1.00;;;14.90;99.90;;;;;;4984967;28;20026;-68
2024/02/09 12:55:59;;;;;;;4.63;1.65;;;14.80;99.90;;;;;;4971924;28;20026;-68
2024/02/09 12:58:25;;;;;;;3.90;1.25;;;15.10;99.90;;;;;;4971379;28;20027;-66
2024/02/09 13:00:54;;;;;;;7.72;1.88;;;15.20;99.90;;;;;;4970700;28;20038;-66
2024/02/09 13:03:21;;;;;;;18.10;2.50;;;15.50;99.90;;;;;;4969927;28;20495;-66
2024/02/09 13:05:50;;;;;;;5.75;2.08;;;15.40;99.90;;;;;;4984572;28;20042;-66
2024/02/09 13:08:16;;;;;;;6.80;1.13;;;15.30;99.90;;;;;;4971527;28;20044;-67
2024/02/09 13:10:41;;;;;;;1.60;0.93;;;15.20;99.90;;;;;;4978604;28;20043;-65
2024/02/09 13:13:07;;;;;;;4.43;1.38;;;15.30;99.90;;;;;;4972581;28;20042;-68
2024/02/09 13:15:34;;;;;;;4.20;1.40;;;15.20;99.90;;;;;;4957969;28;20031;-68
2024/02/09 13:18:08;;;;;;;3.03;1.17;;;15.30;99.90;;;;;;4975473;28;20039;-69
2024/02/09 13:20:37;;;;;;;6.07;1.45;;;15.10;99.90;;;;;;4974342;28;20110;-69
2024/02/09 13:23:04;;;;;;;5.30;1.05;;;14.90;99.90;;;;;;4966872;28;20039;-66
2024/02/09 13:25:35;;;;;;;1.67;0.52;;;14.90;99.90;;;;;;4973790;28;20085;-66
2024/02/09 13:28:02;;;;;;;1.85;0.57;;;15.00;99.90;;;;;;4987409;28;20046;-66
2024/02/09 13:30:29;;;;;;;3.92;0.77;;;14.90;99.90;;;;;;4972999;28;20027;-66
2024/02/09 13:32:56;;;;;;;6.57;1.15;;;14.90;99.90;;;;;;4974584;28;20026;-66
2024/02/09 13:35:22;;;;;;;6.05;1.27;;;14.80;99.90;;;;;;4974706;28;20050;-66
2024/02/09 13:37:49;;;;;;;6.18;1.17;;;14.80;99.90;;;;;;4973633;28;20352;-66
2024/02/09 13:40:16;;;;;;;2.15;1.20;;;14.70;99.90;;;;;;4973494;28;20030;-66
2024/02/09 13:42:51;;;;;;;13.80;1.48;;;14.70;99.90;;;;;;4973716;28;20391;-65
2024/02/09 13:45:21;;;;;;;2.00;0.88;;;14.60;99.90;;;;;;4981317;28;20023;-65
2024/02/09 13:47:47;;;;;;;6.15;1.83;;;14.60;99.90;;;;;;4973739;28;20026;-66
2024/02/09 13:50:15;;;;;;;1.67;0.60;;;14.70;99.90;;;;;;4992228;23;20053;-66
2024/02/09 13:52:45;;;;;;;2.75;0.93;;;14.70;99.90;;;;;;4997648;28;20030;-66
2024/02/09 13:55:17;;;;;;;5.55;0.73;;;14.80;99.90;;;;;;4993294;28;20045;-65
2024/02/09 13:57:48;;;;;;;2.50;0.90;;;14.60;99.90;;;;;;4994060;28;20053;-66
2024/02/09 14:00:19;;;;;;;3.25;2.08;;;14.80;99.90;;;;;;4980849;28;20026;-67
2024/02/09 14:02:45;;;;;;;2.90;1.05;;;14.80;99.90;;;;;;4977358;28;20030;-66
2024/02/09 14:05:11;;;;;;;5.72;1.20;;;14.90;99.90;;;;;;4995923;28;20034;-67
2024/02/09 14:07:38;;;;;;;3.35;0.88;;;14.80;99.90;;;;;;4994568;28;20073;-66
2024/02/09 14:10:10;;;;;;;9.03;1.47;;;14.80;99.90;;;;;;4976666;28;20034;-67
2024/02/09 14:12:36;;;;;;;4.30;0.68;;;14.80;99.90;;;;;;4994504;28;20251;-66
2024/02/09 14:15:01;;;;;;;2.33;1.33;;;14.80;99.90;;;;;;4993713;28;20050;-65
2024/02/09 14:17:31;;;;;;;2.35;0.77;;;14.70;99.90;;;;;;4969666;28;20031;-66
2024/02/09 14:20:01;;;;;;;3.30;0.93;;;14.80;99.90;;;;;;4993094;28;20026;-67
2024/02/09 14:22:26;;;;;;;6.38;1.00;;;14.80;99.90;;;;;;4993800;28;20085;-65
2024/02/09 14:24:52;;;;;;;2.75;1.10;;;14.80;99.90;;;;;;4993129;28;20205;-67
2024/02/09 14:27:18;;;;;;;2.10;1.00;;;14.70;99.90;;;;;;4961008;28;20088;-66
2024/02/09 14:29:45;;;;;;;7.32;1.27;;;14.70;99.90;;;;;;4996334;28;20022;-67
2024/02/09 14:32:12;;;;;;;3.50;0.63;;;14.90;99.90;;;;;;4975633;28;20049;-67
2024/02/09 14:34:40;;;;;;;6.88;1.33;;;14.90;99.90;;;;;;4992658;28;20026;-66
2024/02/09 14:37:07;;;;;;;1.95;0.98;;;15.00;99.90;;;;;;4990723;28;20027;-66